sensor_id;sensor_type;location;lat;lon;timestamp;P1;durP1;ratioP1;P2;durP2;ratioP2
82985;SDS011;72786;53.546;9.910;2023-12-04T00:00:27;28.88;;;10.65;;
82985;SDS011;72786;53.546;9.910;2023-12-04T00:02:53;27.90;;;10.23;;
82985;SDS011;72786;53.546;9.910;2023-12-04T00:05:20;30.60;;;10.82;;
82985;SDS011;72786;53.546;9.910;2023-12-04T00:07:46;26.73;;;9.48;;
82985;SDS011;72786;53.546;9.910;2023-12-04T00:10:13;32.88;;;10.77;;
82985;SDS011;72786;53.546;9.910;2023-12-04T00:12:41;28.38;;;10.55;;
82985;SDS011;72786;53.546;9.910;2023-12-04T00:15:07;28.65;;;9.80;;
82985;SDS011;72786;53.546;9.910;2023-12-04T00:17:34;31.25;;;10.45;;
82985;SDS011;72786;53.546;9.910;2023-12-04T00:20:06;31.70;;;10.27;;
82985;SDS011;72786;53.546;9.910;2023-12-04T00:22:33;26.55;;;9.48;;
82985;SDS011;72786;53.546;9.910;2023-12-04T00:25:00;27.67;;;8.85;;
82985;SDS011;72786;53.546;9.910;2023-12-04T00:27:26;26.25;;;9.52;;
82985;SDS011;72786;53.546;9.910;2023-12-04T00:29:53;26.90;;;10.13;;
82985;SDS011;72786;53.546;9.910;2023-12-04T00:32:20;29.80;;;9.68;;
82985;SDS011;72786;53.546;9.910;2023-12-04T00:34:46;25.15;;;9.85;;
82985;SDS011;72786;53.546;9.910;2023-12-04T00:37:13;24.70;;;9.00;;
82985;SDS011;72786;53.546;9.910;2023-12-04T00:39:39;24.33;;;9.00;;
82985;SDS011;72786;53.546;9.910;2023-12-04T00:42:06;25.50;;;9.40;;
82985;SDS011;72786;53.546;9.910;2023-12-04T00:44:32;26.08;;;9.70;;
82985;SDS011;72786;53.546;9.910;2023-12-04T00:46:59;27.80;;;9.35;;
82985;SDS011;72786;53.546;9.910;2023-12-04T00:49:25;27.10;;;10.13;;
82985;SDS011;72786;53.546;9.910;2023-12-04T00:51:52;31.13;;;9.25;;
82985;SDS011;72786;53.546;9.910;2023-12-04T00:54:19;24.02;;;8.80;;
82985;SDS011;72786;53.546;9.910;2023-12-04T00:56:45;25.73;;;8.63;;
82985;SDS011;72786;53.546;9.910;2023-12-04T00:59:12;26.38;;;9.00;;
82985;SDS011;72786;53.546;9.910;2023-12-04T01:01:38;21.17;;;7.78;;
82985;SDS011;72786;53.546;9.910;2023-12-04T01:04:05;26.08;;;9.98;;
82985;SDS011;72786;53.546;9.910;2023-12-04T01:06:31;25.75;;;8.82;;
82985;SDS011;72786;53.546;9.910;2023-12-04T01:08:58;26.70;;;9.40;;
82985;SDS011;72786;53.546;9.910;2023-12-04T01:11:24;28.35;;;9.23;;
82985;SDS011;72786;53.546;9.910;2023-12-04T01:13:51;22.90;;;9.27;;
82985;SDS011;72786;53.546;9.910;2023-12-04T01:16:17;23.75;;;9.57;;
82985;SDS011;72786;53.546;9.910;2023-12-04T01:18:44;23.08;;;9.25;;
82985;SDS011;72786;53.546;9.910;2023-12-04T01:21:10;24.10;;;10.05;;
82985;SDS011;72786;53.546;9.910;2023-12-04T01:23:37;23.63;;;8.70;;
82985;SDS011;72786;53.546;9.910;2023-12-04T01:26:04;23.20;;;8.60;;
82985;SDS011;72786;53.546;9.910;2023-12-04T01:28:30;20.98;;;8.02;;
82985;SDS011;72786;53.546;9.910;2023-12-04T01:30:57;25.42;;;9.65;;
82985;SDS011;72786;53.546;9.910;2023-12-04T01:33:23;23.48;;;8.73;;
82985;SDS011;72786;53.546;9.910;2023-12-04T01:35:50;24.60;;;8.63;;
82985;SDS011;72786;53.546;9.910;2023-12-04T01:38:17;25.25;;;8.20;;
82985;SDS011;72786;53.546;9.910;2023-12-04T01:40:43;28.75;;;9.05;;
82985;SDS011;72786;53.546;9.910;2023-12-04T01:43:09;28.85;;;9.55;;
82985;SDS011;72786;53.546;9.910;2023-12-04T01:45:36;24.80;;;9.57;;
82985;SDS011;72786;53.546;9.910;2023-12-04T01:48:03;23.48;;;8.18;;
82985;SDS011;72786;53.546;9.910;2023-12-04T01:50:30;21.45;;;8.30;;
82985;SDS011;72786;53.546;9.910;2023-12-04T01:52:56;24.98;;;8.55;;
82985;SDS011;72786;53.546;9.910;2023-12-04T01:55:23;23.88;;;8.95;;
82985;SDS011;72786;53.546;9.910;2023-12-04T01:57:49;22.23;;;8.02;;
82985;SDS011;72786;53.546;9.910;2023-12-04T02:00:16;25.90;;;8.73;;
82985;SDS011;72786;53.546;9.910;2023-12-04T02:02:45;22.85;;;7.85;;
82985;SDS011;72786;53.546;9.910;2023-12-04T02:05:12;19.98;;;7.68;;
82985;SDS011;72786;53.546;9.910;2023-12-04T02:07:40;21.90;;;8.13;;
82985;SDS011;72786;53.546;9.910;2023-12-04T02:10:07;27.80;;;9.45;;
82985;SDS011;72786;53.546;9.910;2023-12-04T02:12:35;24.02;;;8.68;;
82985;SDS011;72786;53.546;9.910;2023-12-04T02:15:02;24.55;;;9.07;;
82985;SDS011;72786;53.546;9.910;2023-12-04T02:17:28;24.38;;;8.82;;
82985;SDS011;72786;53.546;9.910;2023-12-04T02:19:55;26.05;;;8.80;;
82985;SDS011;72786;53.546;9.910;2023-12-04T02:22:23;26.95;;;8.60;;
82985;SDS011;72786;53.546;9.910;2023-12-04T02:24:50;23.48;;;8.23;;
82985;SDS011;72786;53.546;9.910;2023-12-04T02:27:18;25.23;;;8.70;;
82985;SDS011;72786;53.546;9.910;2023-12-04T02:32:21;22.65;;;7.20;;
82985;SDS011;72786;53.546;9.910;2023-12-04T02:34:49;21.58;;;8.10;;
82985;SDS011;72786;53.546;9.910;2023-12-04T02:37:16;24.13;;;8.32;;
82985;SDS011;72786;53.546;9.910;2023-12-04T02:39:43;23.05;;;8.57;;
82985;SDS011;72786;53.546;9.910;2023-12-04T02:42:11;24.30;;;8.23;;
82985;SDS011;72786;53.546;9.910;2023-12-04T02:44:39;21.52;;;8.27;;
82985;SDS011;72786;53.546;9.910;2023-12-04T02:47:06;21.38;;;8.05;;
82985;SDS011;72786;53.546;9.910;2023-12-04T02:49:32;23.48;;;9.25;;
82985;SDS011;72786;53.546;9.910;2023-12-04T02:51:59;28.90;;;9.88;;
82985;SDS011;72786;53.546;9.910;2023-12-04T02:54:25;22.88;;;7.75;;
82985;SDS011;72786;53.546;9.910;2023-12-04T02:56:52;20.98;;;8.07;;
82985;SDS011;72786;53.546;9.910;2023-12-04T02:59:18;26.45;;;8.82;;
82985;SDS011;72786;53.546;9.910;2023-12-04T03:01:44;23.65;;;8.90;;
82985;SDS011;72786;53.546;9.910;2023-12-04T03:04:11;27.40;;;9.13;;
82985;SDS011;72786;53.546;9.910;2023-12-04T03:06:38;24.90;;;9.00;;
82985;SDS011;72786;53.546;9.910;2023-12-04T03:09:04;23.35;;;8.50;;
82985;SDS011;72786;53.546;9.910;2023-12-04T03:11:31;25.45;;;8.93;;
82985;SDS011;72786;53.546;9.910;2023-12-04T03:13:59;27.50;;;9.40;;
82985;SDS011;72786;53.546;9.910;2023-12-04T03:16:26;19.58;;;7.35;;
82985;SDS011;72786;53.546;9.910;2023-12-04T03:18:52;28.75;;;10.00;;
82985;SDS011;72786;53.546;9.910;2023-12-04T03:21:19;24.88;;;8.63;;
82985;SDS011;72786;53.546;9.910;2023-12-04T03:23:45;23.90;;;9.40;;
82985;SDS011;72786;53.546;9.910;2023-12-04T03:26:12;31.23;;;10.68;;
82985;SDS011;72786;53.546;9.910;2023-12-04T03:28:38;25.98;;;9.38;;
82985;SDS011;72786;53.546;9.910;2023-12-04T03:31:08;27.90;;;9.65;;
82985;SDS011;72786;53.546;9.910;2023-12-04T03:33:35;27.92;;;10.10;;
82985;SDS011;72786;53.546;9.910;2023-12-04T03:36:01;25.63;;;8.93;;
82985;SDS011;72786;53.546;9.910;2023-12-04T03:38:28;22.45;;;8.80;;
82985;SDS011;72786;53.546;9.910;2023-12-04T03:40:55;23.40;;;9.00;;
82985;SDS011;72786;53.546;9.910;2023-12-04T03:43:22;27.27;;;9.43;;
82985;SDS011;72786;53.546;9.910;2023-12-04T03:45:48;28.13;;;7.93;;
82985;SDS011;72786;53.546;9.910;2023-12-04T03:48:15;25.45;;;8.45;;
82985;SDS011;72786;53.546;9.910;2023-12-04T03:50:41;23.20;;;8.65;;
82985;SDS011;72786;53.546;9.910;2023-12-04T03:53:08;22.90;;;8.77;;
82985;SDS011;72786;53.546;9.910;2023-12-04T03:55:34;23.20;;;8.90;;
82985;SDS011;72786;53.546;9.910;2023-12-04T03:58:01;27.17;;;7.95;;
82985;SDS011;72786;53.546;9.910;2023-12-04T04:00:27;23.48;;;8.15;;
82985;SDS011;72786;53.546;9.910;2023-12-04T04:02:54;26.52;;;9.07;;
82985;SDS011;72786;53.546;9.910;2023-12-04T04:05:20;27.63;;;9.18;;
82985;SDS011;72786;53.546;9.910;2023-12-04T04:07:47;26.33;;;9.30;;
82985;SDS011;72786;53.546;9.910;2023-12-04T04:10:13;22.52;;;8.73;;
82985;SDS011;72786;53.546;9.910;2023-12-04T04:12:40;24.10;;;8.50;;
82985;SDS011;72786;53.546;9.910;2023-12-04T04:15:06;24.33;;;8.13;;
82985;SDS011;72786;53.546;9.910;2023-12-04T04:17:33;24.40;;;8.48;;
82985;SDS011;72786;53.546;9.910;2023-12-04T04:20:00;20.50;;;8.18;;
82985;SDS011;72786;53.546;9.910;2023-12-04T04:22:26;22.05;;;7.60;;
82985;SDS011;72786;53.546;9.910;2023-12-04T04:24:53;22.88;;;8.00;;
82985;SDS011;72786;53.546;9.910;2023-12-04T04:27:23;20.88;;;7.93;;
82985;SDS011;72786;53.546;9.910;2023-12-04T04:29:49;21.73;;;8.20;;
82985;SDS011;72786;53.546;9.910;2023-12-04T04:32:15;23.10;;;7.70;;
82985;SDS011;72786;53.546;9.910;2023-12-04T04:34:42;20.60;;;8.43;;
82985;SDS011;72786;53.546;9.910;2023-12-04T04:37:08;21.23;;;7.72;;
82985;SDS011;72786;53.546;9.910;2023-12-04T04:39:35;24.58;;;7.88;;
82985;SDS011;72786;53.546;9.910;2023-12-04T04:42:01;20.70;;;7.30;;
82985;SDS011;72786;53.546;9.910;2023-12-04T04:44:28;23.10;;;8.48;;
82985;SDS011;72786;53.546;9.910;2023-12-04T04:46:54;19.33;;;6.85;;
82985;SDS011;72786;53.546;9.910;2023-12-04T04:49:21;21.00;;;8.02;;
82985;SDS011;72786;53.546;9.910;2023-12-04T04:51:47;20.23;;;7.68;;
82985;SDS011;72786;53.546;9.910;2023-12-04T04:54:14;23.08;;;7.90;;
82985;SDS011;72786;53.546;9.910;2023-12-04T04:56:40;18.88;;;6.93;;
82985;SDS011;72786;53.546;9.910;2023-12-04T04:59:07;24.33;;;7.30;;
82985;SDS011;72786;53.546;9.910;2023-12-04T05:01:33;22.17;;;7.32;;
82985;SDS011;72786;53.546;9.910;2023-12-04T05:04:00;21.58;;;7.38;;
82985;SDS011;72786;53.546;9.910;2023-12-04T05:06:26;23.90;;;8.57;;
82985;SDS011;72786;53.546;9.910;2023-12-04T05:08:53;21.55;;;8.27;;
82985;SDS011;72786;53.546;9.910;2023-12-04T05:11:19;22.10;;;7.75;;
82985;SDS011;72786;53.546;9.910;2023-12-04T05:13:46;24.00;;;8.10;;
82985;SDS011;72786;53.546;9.910;2023-12-04T05:16:12;22.42;;;7.95;;
82985;SDS011;72786;53.546;9.910;2023-12-04T05:18:39;22.30;;;6.93;;
82985;SDS011;72786;53.546;9.910;2023-12-04T05:21:09;23.60;;;8.48;;
82985;SDS011;72786;53.546;9.910;2023-12-04T05:23:36;20.20;;;7.38;;
82985;SDS011;72786;53.546;9.910;2023-12-04T05:26:04;25.48;;;8.38;;
82985;SDS011;72786;53.546;9.910;2023-12-04T05:28:32;21.02;;;7.90;;
82985;SDS011;72786;53.546;9.910;2023-12-04T05:30:59;21.27;;;8.07;;
82985;SDS011;72786;53.546;9.910;2023-12-04T05:33:26;19.50;;;7.35;;
82985;SDS011;72786;53.546;9.910;2023-12-04T05:35:53;24.05;;;7.60;;
82985;SDS011;72786;53.546;9.910;2023-12-04T05:38:20;23.77;;;8.07;;
82985;SDS011;72786;53.546;9.910;2023-12-04T05:40:46;26.42;;;9.35;;
82985;SDS011;72786;53.546;9.910;2023-12-04T05:43:12;23.80;;;7.72;;
82985;SDS011;72786;53.546;9.910;2023-12-04T05:45:39;21.33;;;7.82;;
82985;SDS011;72786;53.546;9.910;2023-12-04T05:48:06;22.90;;;8.40;;
82985;SDS011;72786;53.546;9.910;2023-12-04T05:50:33;22.17;;;7.68;;
82985;SDS011;72786;53.546;9.910;2023-12-04T05:52:59;23.23;;;8.10;;
82985;SDS011;72786;53.546;9.910;2023-12-04T05:55:26;24.48;;;7.50;;
82985;SDS011;72786;53.546;9.910;2023-12-04T05:57:53;21.02;;;8.35;;
82985;SDS011;72786;53.546;9.910;2023-12-04T06:00:19;21.90;;;9.18;;
82985;SDS011;72786;53.546;9.910;2023-12-04T06:02:46;21.55;;;8.38;;
82985;SDS011;72786;53.546;9.910;2023-12-04T06:05:12;26.67;;;8.77;;
82985;SDS011;72786;53.546;9.910;2023-12-04T06:07:38;24.45;;;8.30;;
82985;SDS011;72786;53.546;9.910;2023-12-04T06:10:05;23.48;;;8.20;;
82985;SDS011;72786;53.546;9.910;2023-12-04T06:12:32;23.77;;;8.38;;
82985;SDS011;72786;53.546;9.910;2023-12-04T06:14:59;23.42;;;8.27;;
82985;SDS011;72786;53.546;9.910;2023-12-04T06:17:26;23.10;;;8.80;;
82985;SDS011;72786;53.546;9.910;2023-12-04T06:19:53;22.67;;;8.18;;
82985;SDS011;72786;53.546;9.910;2023-12-04T06:22:20;23.73;;;8.10;;
82985;SDS011;72786;53.546;9.910;2023-12-04T06:24:48;25.55;;;8.27;;
82985;SDS011;72786;53.546;9.910;2023-12-04T06:27:15;25.80;;;8.93;;
82985;SDS011;72786;53.546;9.910;2023-12-04T06:29:44;22.08;;;8.68;;
82985;SDS011;72786;53.546;9.910;2023-12-04T06:32:15;23.55;;;9.30;;
82985;SDS011;72786;53.546;9.910;2023-12-04T06:34:41;23.67;;;7.85;;
82985;SDS011;72786;53.546;9.910;2023-12-04T06:37:09;26.77;;;9.23;;
82985;SDS011;72786;53.546;9.910;2023-12-04T06:39:37;27.58;;;8.50;;
82985;SDS011;72786;53.546;9.910;2023-12-04T06:42:06;26.73;;;9.55;;
82985;SDS011;72786;53.546;9.910;2023-12-04T06:44:33;33.40;;;10.35;;
82985;SDS011;72786;53.546;9.910;2023-12-04T06:47:00;26.60;;;9.43;;
82985;SDS011;72786;53.546;9.910;2023-12-04T06:49:31;26.33;;;9.48;;
82985;SDS011;72786;53.546;9.910;2023-12-04T06:51:59;26.00;;;9.70;;
82985;SDS011;72786;53.546;9.910;2023-12-04T06:54:26;27.27;;;9.30;;
82985;SDS011;72786;53.546;9.910;2023-12-04T06:56:53;31.33;;;10.60;;
82985;SDS011;72786;53.546;9.910;2023-12-04T06:59:20;32.60;;;11.20;;
82985;SDS011;72786;53.546;9.910;2023-12-04T07:01:47;33.10;;;10.75;;
82985;SDS011;72786;53.546;9.910;2023-12-04T07:04:13;29.80;;;10.43;;
82985;SDS011;72786;53.546;9.910;2023-12-04T07:06:40;30.65;;;11.00;;
82985;SDS011;72786;53.546;9.910;2023-12-04T07:09:07;29.67;;;10.07;;
82985;SDS011;72786;53.546;9.910;2023-12-04T07:11:34;27.40;;;9.13;;
82985;SDS011;72786;53.546;9.910;2023-12-04T07:14:01;30.40;;;9.57;;
82985;SDS011;72786;53.546;9.910;2023-12-04T07:16:28;30.60;;;9.98;;
82985;SDS011;72786;53.546;9.910;2023-12-04T07:18:54;31.77;;;10.77;;
82985;SDS011;72786;53.546;9.910;2023-12-04T07:21:21;34.72;;;12.48;;
82985;SDS011;72786;53.546;9.910;2023-12-04T07:23:48;29.33;;;9.57;;
82985;SDS011;72786;53.546;9.910;2023-12-04T07:26:15;32.90;;;10.32;;
82985;SDS011;72786;53.546;9.910;2023-12-04T07:28:41;28.10;;;9.95;;
82985;SDS011;72786;53.546;9.910;2023-12-04T07:31:08;31.38;;;10.32;;
82985;SDS011;72786;53.546;9.910;2023-12-04T07:33:34;28.90;;;10.25;;
82985;SDS011;72786;53.546;9.910;2023-12-04T07:36:01;32.78;;;10.55;;
82985;SDS011;72786;53.546;9.910;2023-12-04T07:38:27;36.28;;;10.40;;
82985;SDS011;72786;53.546;9.910;2023-12-04T07:40:54;24.70;;;9.32;;
82985;SDS011;72786;53.546;9.910;2023-12-04T07:43:21;31.70;;;10.30;;
82985;SDS011;72786;53.546;9.910;2023-12-04T07:45:47;32.85;;;10.35;;
82985;SDS011;72786;53.546;9.910;2023-12-04T07:48:14;28.55;;;10.27;;
82985;SDS011;72786;53.546;9.910;2023-12-04T07:50:40;32.78;;;10.88;;
82985;SDS011;72786;53.546;9.910;2023-12-04T07:53:07;27.23;;;10.05;;
82985;SDS011;72786;53.546;9.910;2023-12-04T07:55:38;29.88;;;10.20;;
82985;SDS011;72786;53.546;9.910;2023-12-04T07:58:04;30.80;;;10.00;;
82985;SDS011;72786;53.546;9.910;2023-12-04T08:00:31;33.90;;;10.85;;
82985;SDS011;72786;53.546;9.910;2023-12-04T08:02:57;27.48;;;10.20;;
82985;SDS011;72786;53.546;9.910;2023-12-04T08:05:24;31.50;;;10.57;;
82985;SDS011;72786;53.546;9.910;2023-12-04T08:07:50;27.08;;;9.35;;
82985;SDS011;72786;53.546;9.910;2023-12-04T08:10:17;28.80;;;9.55;;
82985;SDS011;72786;53.546;9.910;2023-12-04T08:12:44;27.33;;;9.52;;
82985;SDS011;72786;53.546;9.910;2023-12-04T08:15:12;24.95;;;9.32;;
82985;SDS011;72786;53.546;9.910;2023-12-04T08:17:39;30.30;;;9.65;;
82985;SDS011;72786;53.546;9.910;2023-12-04T08:20:05;33.45;;;10.95;;
82985;SDS011;72786;53.546;9.910;2023-12-04T08:22:33;35.97;;;10.13;;
82985;SDS011;72786;53.546;9.910;2023-12-04T08:24:59;29.33;;;10.90;;
82985;SDS011;72786;53.546;9.910;2023-12-04T08:27:26;30.20;;;10.32;;
82985;SDS011;72786;53.546;9.910;2023-12-04T08:29:53;27.30;;;9.45;;
82985;SDS011;72786;53.546;9.910;2023-12-04T08:32:19;35.63;;;11.20;;
82985;SDS011;72786;53.546;9.910;2023-12-04T08:34:47;40.13;;;11.50;;
82985;SDS011;72786;53.546;9.910;2023-12-04T08:37:14;32.17;;;10.38;;
82985;SDS011;72786;53.546;9.910;2023-12-04T08:39:40;35.97;;;11.00;;
82985;SDS011;72786;53.546;9.910;2023-12-04T08:42:07;35.90;;;11.55;;
82985;SDS011;72786;53.546;9.910;2023-12-04T08:44:42;32.53;;;10.23;;
82985;SDS011;72786;53.546;9.910;2023-12-04T08:47:11;31.40;;;10.05;;
82985;SDS011;72786;53.546;9.910;2023-12-04T08:49:39;39.97;;;12.30;;
82985;SDS011;72786;53.546;9.910;2023-12-04T08:52:14;33.67;;;10.95;;
82985;SDS011;72786;53.546;9.910;2023-12-04T08:54:41;40.75;;;12.13;;
82985;SDS011;72786;53.546;9.910;2023-12-04T08:57:08;30.17;;;10.40;;
82985;SDS011;72786;53.546;9.910;2023-12-04T08:59:35;37.83;;;10.70;;
82985;SDS011;72786;53.546;9.910;2023-12-04T09:02:02;32.65;;;11.05;;
82985;SDS011;72786;53.546;9.910;2023-12-04T09:04:32;30.95;;;10.13;;
82985;SDS011;72786;53.546;9.910;2023-12-04T09:07:00;32.33;;;10.73;;
82985;SDS011;72786;53.546;9.910;2023-12-04T09:09:29;28.67;;;9.85;;
82985;SDS011;72786;53.546;9.910;2023-12-04T09:11:56;30.48;;;10.27;;
82985;SDS011;72786;53.546;9.910;2023-12-04T09:14:23;31.58;;;11.02;;
82985;SDS011;72786;53.546;9.910;2023-12-04T09:16:49;36.20;;;11.30;;
82985;SDS011;72786;53.546;9.910;2023-12-04T09:19:15;29.85;;;11.05;;
82985;SDS011;72786;53.546;9.910;2023-12-04T09:21:42;33.08;;;10.55;;
82985;SDS011;72786;53.546;9.910;2023-12-04T09:24:10;38.95;;;11.30;;
82985;SDS011;72786;53.546;9.910;2023-12-04T09:26:37;31.05;;;10.13;;
82985;SDS011;72786;53.546;9.910;2023-12-04T09:29:03;28.33;;;10.00;;
82985;SDS011;72786;53.546;9.910;2023-12-04T09:31:30;32.25;;;11.50;;
82985;SDS011;72786;53.546;9.910;2023-12-04T09:33:57;29.40;;;10.80;;
82985;SDS011;72786;53.546;9.910;2023-12-04T09:36:24;30.80;;;10.05;;
82985;SDS011;72786;53.546;9.910;2023-12-04T09:38:51;29.63;;;10.52;;
82985;SDS011;72786;53.546;9.910;2023-12-04T09:41:17;30.58;;;10.63;;
82985;SDS011;72786;53.546;9.910;2023-12-04T09:43:44;33.63;;;11.15;;
82985;SDS011;72786;53.546;9.910;2023-12-04T09:46:11;36.20;;;11.27;;
82985;SDS011;72786;53.546;9.910;2023-12-04T09:48:38;30.92;;;10.75;;
82985;SDS011;72786;53.546;9.910;2023-12-04T09:51:07;25.52;;;9.38;;
82985;SDS011;72786;53.546;9.910;2023-12-04T09:53:35;31.17;;;10.73;;
82985;SDS011;72786;53.546;9.910;2023-12-04T09:56:06;33.10;;;10.82;;
82985;SDS011;72786;53.546;9.910;2023-12-04T09:58:33;27.55;;;10.25;;
82985;SDS011;72786;53.546;9.910;2023-12-04T10:01:02;27.55;;;9.82;;
82985;SDS011;72786;53.546;9.910;2023-12-04T10:03:30;26.48;;;10.02;;
82985;SDS011;72786;53.546;9.910;2023-12-04T10:05:57;33.45;;;10.38;;
82985;SDS011;72786;53.546;9.910;2023-12-04T10:08:24;29.88;;;11.02;;
82985;SDS011;72786;53.546;9.910;2023-12-04T10:10:51;29.10;;;9.48;;
82985;SDS011;72786;53.546;9.910;2023-12-04T10:13:17;32.83;;;10.85;;
82985;SDS011;72786;53.546;9.910;2023-12-04T10:16:04;32.35;;;11.38;;
82985;SDS011;72786;53.546;9.910;2023-12-04T10:18:30;28.60;;;10.15;;
82985;SDS011;72786;53.546;9.910;2023-12-04T10:20:58;31.52;;;10.85;;
82985;SDS011;72786;53.546;9.910;2023-12-04T10:23:38;29.08;;;10.15;;
82985;SDS011;72786;53.546;9.910;2023-12-04T10:26:06;25.77;;;9.90;;
82985;SDS011;72786;53.546;9.910;2023-12-04T10:28:34;26.88;;;9.85;;
82985;SDS011;72786;53.546;9.910;2023-12-04T10:31:01;30.15;;;10.18;;
82985;SDS011;72786;53.546;9.910;2023-12-04T10:33:29;25.10;;;9.55;;
82985;SDS011;72786;53.546;9.910;2023-12-04T10:35:57;27.20;;;9.20;;
82985;SDS011;72786;53.546;9.910;2023-12-04T10:38:23;28.83;;;10.60;;
82985;SDS011;72786;53.546;9.910;2023-12-04T10:40:51;25.15;;;9.50;;
82985;SDS011;72786;53.546;9.910;2023-12-04T10:43:19;25.85;;;8.98;;
82985;SDS011;72786;53.546;9.910;2023-12-04T10:45:47;27.42;;;9.15;;
82985;SDS011;72786;53.546;9.910;2023-12-04T10:48:15;29.10;;;8.82;;
82985;SDS011;72786;53.546;9.910;2023-12-04T10:50:44;23.20;;;9.43;;
82985;SDS011;72786;53.546;9.910;2023-12-04T10:53:13;24.50;;;9.13;;
82985;SDS011;72786;53.546;9.910;2023-12-04T10:55:41;31.30;;;12.13;;
82985;SDS011;72786;53.546;9.910;2023-12-04T10:58:09;26.63;;;9.98;;
82985;SDS011;72786;53.546;9.910;2023-12-04T11:00:40;29.50;;;10.02;;
82985;SDS011;72786;53.546;9.910;2023-12-04T11:03:20;28.73;;;10.18;;
82985;SDS011;72786;53.546;9.910;2023-12-04T11:05:56;25.85;;;9.30;;
82985;SDS011;72786;53.546;9.910;2023-12-04T11:08:31;26.90;;;8.90;;
82985;SDS011;72786;53.546;9.910;2023-12-04T11:11:03;26.90;;;9.57;;
82985;SDS011;72786;53.546;9.910;2023-12-04T11:13:34;23.73;;;8.52;;
82985;SDS011;72786;53.546;9.910;2023-12-04T11:16:07;25.30;;;9.50;;
82985;SDS011;72786;53.546;9.910;2023-12-04T11:18:43;23.35;;;9.02;;
82985;SDS011;72786;53.546;9.910;2023-12-04T11:21:13;26.48;;;9.32;;
82985;SDS011;72786;53.546;9.910;2023-12-04T11:23:39;25.50;;;9.32;;
82985;SDS011;72786;53.546;9.910;2023-12-04T11:26:07;22.55;;;8.73;;
82985;SDS011;72786;53.546;9.910;2023-12-04T11:28:35;26.10;;;9.07;;
82985;SDS011;72786;53.546;9.910;2023-12-04T11:31:04;24.70;;;8.50;;
82985;SDS011;72786;53.546;9.910;2023-12-04T11:33:36;24.13;;;9.35;;
82985;SDS011;72786;53.546;9.910;2023-12-04T11:38:38;23.70;;;8.23;;
82985;SDS011;72786;53.546;9.910;2023-12-04T11:41:16;20.02;;;7.25;;
82985;SDS011;72786;53.546;9.910;2023-12-04T11:43:50;23.60;;;8.98;;
82985;SDS011;72786;53.546;9.910;2023-12-04T11:46:19;23.30;;;8.43;;
82985;SDS011;72786;53.546;9.910;2023-12-04T11:48:50;22.70;;;7.78;;
82985;SDS011;72786;53.546;9.910;2023-12-04T11:54:08;21.77;;;7.97;;
82985;SDS011;72786;53.546;9.910;2023-12-04T11:56:35;19.90;;;7.65;;
82985;SDS011;72786;53.546;9.910;2023-12-04T11:59:02;23.17;;;8.45;;
82985;SDS011;72786;53.546;9.910;2023-12-04T12:01:33;24.00;;;9.25;;
82985;SDS011;72786;53.546;9.910;2023-12-04T12:04:06;22.25;;;8.55;;
82985;SDS011;72786;53.546;9.910;2023-12-04T12:06:33;18.63;;;7.60;;
82985;SDS011;72786;53.546;9.910;2023-12-04T12:09:00;23.05;;;8.15;;
82985;SDS011;72786;53.546;9.910;2023-12-04T12:11:26;21.15;;;8.30;;
82985;SDS011;72786;53.546;9.910;2023-12-04T12:13:53;24.00;;;8.95;;
82985;SDS011;72786;53.546;9.910;2023-12-04T12:16:20;25.35;;;9.80;;
82985;SDS011;72786;53.546;9.910;2023-12-04T12:18:48;23.40;;;8.82;;
82985;SDS011;72786;53.546;9.910;2023-12-04T12:21:15;21.52;;;8.52;;
82985;SDS011;72786;53.546;9.910;2023-12-04T12:23:41;20.80;;;8.27;;
82985;SDS011;72786;53.546;9.910;2023-12-04T12:26:08;22.30;;;8.20;;
82985;SDS011;72786;53.546;9.910;2023-12-04T12:28:35;21.67;;;8.30;;
82985;SDS011;72786;53.546;9.910;2023-12-04T12:31:02;22.80;;;8.85;;
82985;SDS011;72786;53.546;9.910;2023-12-04T12:33:30;23.83;;;9.10;;
82985;SDS011;72786;53.546;9.910;2023-12-04T12:35:57;19.85;;;8.43;;
82985;SDS011;72786;53.546;9.910;2023-12-04T12:38:30;21.85;;;8.18;;
82985;SDS011;72786;53.546;9.910;2023-12-04T12:41:01;26.13;;;8.73;;
82985;SDS011;72786;53.546;9.910;2023-12-04T12:43:31;23.60;;;8.02;;
82985;SDS011;72786;53.546;9.910;2023-12-04T12:45:58;23.85;;;8.45;;
82985;SDS011;72786;53.546;9.910;2023-12-04T12:48:26;23.38;;;8.45;;
82985;SDS011;72786;53.546;9.910;2023-12-04T12:50:55;23.70;;;8.63;;
82985;SDS011;72786;53.546;9.910;2023-12-04T12:53:21;22.33;;;8.55;;
82985;SDS011;72786;53.546;9.910;2023-12-04T12:55:47;21.23;;;7.95;;
82985;SDS011;72786;53.546;9.910;2023-12-04T12:58:14;20.95;;;8.05;;
82985;SDS011;72786;53.546;9.910;2023-12-04T13:00:41;22.35;;;8.05;;
82985;SDS011;72786;53.546;9.910;2023-12-04T13:03:16;22.02;;;7.90;;
82985;SDS011;72786;53.546;9.910;2023-12-04T13:05:43;22.05;;;8.80;;
82985;SDS011;72786;53.546;9.910;2023-12-04T13:08:10;25.80;;;8.90;;
82985;SDS011;72786;53.546;9.910;2023-12-04T13:10:41;22.10;;;7.70;;
82985;SDS011;72786;53.546;9.910;2023-12-04T13:13:14;22.83;;;9.32;;
82985;SDS011;72786;53.546;9.910;2023-12-04T13:15:41;22.42;;;8.00;;
82985;SDS011;72786;53.546;9.910;2023-12-04T13:18:08;22.63;;;8.52;;
82985;SDS011;72786;53.546;9.910;2023-12-04T13:20:35;21.48;;;8.20;;
82985;SDS011;72786;53.546;9.910;2023-12-04T13:23:01;22.35;;;8.18;;
82985;SDS011;72786;53.546;9.910;2023-12-04T13:25:28;20.02;;;8.05;;
82985;SDS011;72786;53.546;9.910;2023-12-04T13:27:56;22.17;;;8.98;;
82985;SDS011;72786;53.546;9.910;2023-12-04T13:30:23;21.55;;;8.13;;
82985;SDS011;72786;53.546;9.910;2023-12-04T13:32:50;22.80;;;8.38;;
82985;SDS011;72786;53.546;9.910;2023-12-04T13:35:17;22.02;;;8.50;;
82985;SDS011;72786;53.546;9.910;2023-12-04T13:37:44;22.77;;;9.07;;
82985;SDS011;72786;53.546;9.910;2023-12-04T13:40:11;23.13;;;8.82;;
82985;SDS011;72786;53.546;9.910;2023-12-04T13:42:43;24.67;;;8.65;;
82985;SDS011;72786;53.546;9.910;2023-12-04T13:45:28;19.00;;;7.90;;
82985;SDS011;72786;53.546;9.910;2023-12-04T13:47:54;24.02;;;8.73;;
82985;SDS011;72786;53.546;9.910;2023-12-04T13:50:21;22.25;;;8.27;;
82985;SDS011;72786;53.546;9.910;2023-12-04T13:52:47;26.17;;;8.88;;
82985;SDS011;72786;53.546;9.910;2023-12-04T13:55:21;21.15;;;7.93;;
82985;SDS011;72786;53.546;9.910;2023-12-04T13:58:03;20.48;;;7.32;;
82985;SDS011;72786;53.546;9.910;2023-12-04T14:00:30;23.38;;;8.45;;
82985;SDS011;72786;53.546;9.910;2023-12-04T14:02:56;25.35;;;9.38;;
82985;SDS011;72786;53.546;9.910;2023-12-04T14:05:31;24.08;;;7.80;;
82985;SDS011;72786;53.546;9.910;2023-12-04T14:07:58;23.33;;;8.90;;
82985;SDS011;72786;53.546;9.910;2023-12-04T14:10:26;20.10;;;7.72;;
82985;SDS011;72786;53.546;9.910;2023-12-04T14:12:54;20.17;;;7.72;;
82985;SDS011;72786;53.546;9.910;2023-12-04T14:15:23;22.13;;;8.02;;
82985;SDS011;72786;53.546;9.910;2023-12-04T14:17:49;20.25;;;7.35;;
82985;SDS011;72786;53.546;9.910;2023-12-04T14:20:16;20.90;;;7.93;;
82985;SDS011;72786;53.546;9.910;2023-12-04T14:22:45;21.70;;;7.25;;
82985;SDS011;72786;53.546;9.910;2023-12-04T14:25:12;23.42;;;8.50;;
82985;SDS011;72786;53.546;9.910;2023-12-04T14:27:38;21.00;;;8.48;;
82985;SDS011;72786;53.546;9.910;2023-12-04T14:30:11;19.77;;;7.68;;
82985;SDS011;72786;53.546;9.910;2023-12-04T14:32:37;22.58;;;7.68;;
82985;SDS011;72786;53.546;9.910;2023-12-04T14:35:13;23.08;;;8.52;;
82985;SDS011;72786;53.546;9.910;2023-12-04T14:37:40;24.55;;;8.50;;
82985;SDS011;72786;53.546;9.910;2023-12-04T14:40:07;23.52;;;8.30;;